JEF22 ESGG-LFLL
Flight info
| Callsign | JEF22 |
|---|---|
| Flight time | N/A |
| Altitude | 38000 |
| Route | VADIN M852 GODOG DCT ALASA/N0455F370 M852 TUGDU/N0454F380 DCT EKERN N125 ELSOB DCT BASUM DCT LIRSU DCT LIMGO/N0456F370 N852 SUTAL DCT GTQ DCT POGOL DCT LASAT DCT MOROK Z24 BOLGI T14 MILPA |
| Aircraft | CL60/M-SBDE2E3FGHIJ1J3J4J5M1P2RWXYZ/LB1D1 |
Departure
| Time | N/A |
|---|---|
| Airport | Göteborg Landvetter Airport (ESGG) |
Arrival
| Time | 2026-04-29 07:15 |
|---|---|
| Airport | Lyon Saint-Exupéry Airport (LFLL) |
| Time | Latitude | Longitude | Altitude | Speed | Heading |
|---|---|---|---|---|---|
| 2026-04-29 06:40 | 48.46321 | 6.69546 | 38126 ft | 466 kts | 185° |
| 2026-04-29 06:41 | 48.43059 | 6.69419 | 38126 ft | 465 kts | 185° |
| 2026-04-29 06:41 | 48.36562 | 6.69168 | 38123 ft | 466 kts | 185° |
| 2026-04-29 06:42 | 48.30055 | 6.68916 | 38110 ft | 465 kts | 185° |
| 2026-04-29 06:42 | 48.23602 | 6.68668 | 38111 ft | 465 kts | 185° |
| 2026-04-29 06:43 | 48.17101 | 6.68419 | 38104 ft | 465 kts | 185° |
| 2026-04-29 06:43 | 48.10631 | 6.68172 | 38115 ft | 465 kts | 185° |
| 2026-04-29 06:44 | 48.04205 | 6.67927 | 38100 ft | 465 kts | 185° |
| 2026-04-29 06:44 | 47.97734 | 6.67683 | 38108 ft | 464 kts | 185° |
| 2026-04-29 06:45 | 47.91243 | 6.67437 | 38096 ft | 465 kts | 185° |
| 2026-04-29 06:45 | 47.84940 | 6.67200 | 38095 ft | 463 kts | 185° |
| 2026-04-29 06:46 | 47.78743 | 6.66967 | 38080 ft | 464 kts | 185° |
| 2026-04-29 06:46 | 47.72262 | 6.66724 | 38084 ft | 463 kts | 185° |
| 2026-04-29 06:47 | 47.65865 | 6.66485 | 38077 ft | 462 kts | 185° |
| 2026-04-29 06:47 | 47.59461 | 6.66247 | 38086 ft | 461 kts | 185° |
| 2026-04-29 06:48 | 47.53008 | 6.66007 | 38095 ft | 460 kts | 185° |
| 2026-04-29 06:48 | 47.46593 | 6.65769 | 38085 ft | 459 kts | 185° |
| 2026-04-29 06:49 | 47.40157 | 6.65532 | 38080 ft | 459 kts | 185° |
| 2026-04-29 06:49 | 47.33779 | 6.65297 | 38067 ft | 459 kts | 185° |
| 2026-04-29 06:50 | 47.27425 | 6.64733 | 38085 ft | 454 kts | 193° |
| 2026-04-29 06:50 | 47.21418 | 6.62218 | 38082 ft | 445 kts | 207° |
| 2026-04-29 06:51 | 47.16050 | 6.57717 | 37566 ft | 445 kts | 220° |
| 2026-04-29 06:51 | 47.13696 | 6.54822 | 36996 ft | 440 kts | 225° |
| 2026-04-29 06:51 | 47.11428 | 6.51830 | 36428 ft | 438 kts | 225° |
| 2026-04-29 06:51 | 47.09164 | 6.48855 | 35880 ft | 439 kts | 225° |
| 2026-04-29 06:52 | 47.06878 | 6.45855 | 35294 ft | 439 kts | 225° |
| 2026-04-29 06:52 | 47.04580 | 6.42844 | 34711 ft | 440 kts | 225° |
| 2026-04-29 06:52 | 47.02291 | 6.39848 | 34100 ft | 440 kts | 225° |
| 2026-04-29 06:52 | 47.00013 | 6.36869 | 33531 ft | 444 kts | 225° |
| 2026-04-29 06:53 | 46.97779 | 6.33954 | 32967 ft | 441 kts | 225° |
| 2026-04-29 06:53 | 46.95525 | 6.31016 | 32386 ft | 439 kts | 225° |
| 2026-04-29 06:53 | 46.93293 | 6.28108 | 31816 ft | 435 kts | 225° |
| 2026-04-29 06:53 | 46.91031 | 6.25164 | 31229 ft | 430 kts | 225° |
| 2026-04-29 06:54 | 46.88964 | 6.22552 | 30717 ft | 427 kts | 222° |
| 2026-04-29 06:54 | 46.86620 | 6.19814 | 30151 ft | 423 kts | 221° |
| 2026-04-29 06:54 | 46.84302 | 6.17121 | 29638 ft | 419 kts | 221° |
| 2026-04-29 06:54 | 46.82189 | 6.14666 | 29171 ft | 417 kts | 221° |
| 2026-04-29 06:55 | 46.79913 | 6.12023 | 28662 ft | 414 kts | 221° |
| 2026-04-29 06:55 | 46.77676 | 6.09428 | 28166 ft | 411 kts | 221° |
| 2026-04-29 06:55 | 46.75462 | 6.06862 | 27673 ft | 409 kts | 221° |
| 2026-04-29 06:55 | 46.73219 | 6.04264 | 27163 ft | 406 kts | 221° |
| 2026-04-29 06:56 | 46.71016 | 6.01715 | 26665 ft | 404 kts | 221° |
| 2026-04-29 06:56 | 46.68814 | 5.99169 | 26167 ft | 402 kts | 221° |
| 2026-04-29 06:56 | 46.66642 | 5.96661 | 25665 ft | 399 kts | 221° |
| 2026-04-29 06:56 | 46.64453 | 5.94136 | 25159 ft | 396 kts | 221° |
| 2026-04-29 06:57 | 46.62294 | 5.91647 | 24651 ft | 393 kts | 221° |
| 2026-04-29 06:57 | 46.60156 | 5.89185 | 24146 ft | 390 kts | 220° |
| 2026-04-29 06:57 | 46.58032 | 5.86741 | 23650 ft | 387 kts | 220° |
| 2026-04-29 06:57 | 46.55922 | 5.84317 | 23303 ft | 383 kts | 220° |
| 2026-04-29 06:58 | 46.53823 | 5.81907 | 23002 ft | 382 kts | 220° |
| 2026-04-29 06:58 | 46.51747 | 5.79525 | 22705 ft | 382 kts | 220° |
| 2026-04-29 06:58 | 46.49637 | 5.77107 | 22404 ft | 381 kts | 220° |
| 2026-04-29 06:58 | 46.47567 | 5.74737 | 22110 ft | 380 kts | 220° |
| 2026-04-29 06:59 | 46.45509 | 5.72382 | 21814 ft | 379 kts | 220° |
| 2026-04-29 06:59 | 46.43421 | 5.69996 | 21511 ft | 378 kts | 220° |
| 2026-04-29 06:59 | 46.41352 | 5.67635 | 21208 ft | 376 kts | 220° |
| 2026-04-29 06:59 | 46.39311 | 5.65308 | 20908 ft | 375 kts | 219° |
| 2026-04-29 07:00 | 46.37268 | 5.62980 | 20607 ft | 374 kts | 219° |
| 2026-04-29 07:00 | 46.35203 | 5.60630 | 20303 ft | 372 kts | 219° |
| 2026-04-29 07:00 | 46.33178 | 5.58327 | 20003 ft | 371 kts | 219° |
| 2026-04-29 07:00 | 46.31146 | 5.56018 | 19702 ft | 369 kts | 219° |
| 2026-04-29 07:01 | 46.29135 | 5.53736 | 19406 ft | 368 kts | 219° |
| 2026-04-29 07:01 | 46.27111 | 5.51441 | 19103 ft | 366 kts | 219° |
| 2026-04-29 07:01 | 46.25103 | 5.49166 | 18801 ft | 365 kts | 219° |
| 2026-04-29 07:01 | 46.23107 | 5.46908 | 18504 ft | 364 kts | 219° |
| 2026-04-29 07:02 | 46.21111 | 5.44651 | 18203 ft | 363 kts | 219° |
| 2026-04-29 07:02 | 46.19115 | 5.42397 | 17902 ft | 361 kts | 218° |
| 2026-04-29 07:02 | 46.17141 | 5.40169 | 17602 ft | 360 kts | 218° |
| 2026-04-29 07:02 | 46.15185 | 5.37964 | 17306 ft | 358 kts | 218° |
| 2026-04-29 07:03 | 46.13214 | 5.35744 | 17001 ft | 356 kts | 218° |
| 2026-04-29 07:03 | 46.11180 | 5.33874 | 16711 ft | 354 kts | 204° |
| 2026-04-29 07:03 | 46.08847 | 5.32951 | 16420 ft | 352 kts | 186° |
| 2026-04-29 07:03 | 46.06473 | 5.32836 | 16120 ft | 351 kts | 180° |
| 2026-04-29 07:04 | 46.04032 | 5.32809 | 15763 ft | 352 kts | 180° |
| 2026-04-29 07:04 | 46.01608 | 5.32774 | 15297 ft | 348 kts | 180° |
| 2026-04-29 07:04 | 45.99211 | 5.32739 | 14845 ft | 345 kts | 180° |
| 2026-04-29 07:04 | 45.96814 | 5.32704 | 14385 ft | 342 kts | 180° |
| 2026-04-29 07:05 | 45.94437 | 5.32670 | 13932 ft | 339 kts | 180° |
| 2026-04-29 07:05 | 45.92058 | 5.32635 | 13475 ft | 336 kts | 180° |
| 2026-04-29 07:05 | 45.89921 | 5.32604 | 13078 ft | 330 kts | 180° |
| 2026-04-29 07:05 | 45.87608 | 5.32570 | 12633 ft | 324 kts | 180° |
| 2026-04-29 07:06 | 45.85485 | 5.32539 | 12227 ft | 318 kts | 180° |
| 2026-04-29 07:06 | 45.83233 | 5.32506 | 11798 ft | 312 kts | 180° |
| 2026-04-29 07:06 | 45.81073 | 5.32475 | 11374 ft | 307 kts | 180° |
| 2026-04-29 07:06 | 45.78992 | 5.32444 | 10987 ft | 302 kts | 180° |
| 2026-04-29 07:07 | 45.76893 | 5.32414 | 10584 ft | 298 kts | 180° |
| 2026-04-29 07:07 | 45.74845 | 5.32384 | 10186 ft | 294 kts | 180° |
| 2026-04-29 07:07 | 45.72789 | 5.32354 | 9806 ft | 288 kts | 180° |
| 2026-04-29 07:07 | 45.70799 | 5.32325 | 9443 ft | 284 kts | 180° |
| 2026-04-29 07:08 | 45.68835 | 5.32297 | 9032 ft | 282 kts | 180° |
| 2026-04-29 07:08 | 45.66878 | 5.32269 | 8669 ft | 278 kts | 180° |
| 2026-04-29 07:08 | 45.64984 | 5.32151 | 8311 ft | 273 kts | 189° |
| 2026-04-29 07:08 | 45.63196 | 5.31171 | 7933 ft | 271 kts | 212° |
| 2026-04-29 07:09 | 45.61698 | 5.29614 | 7578 ft | 268 kts | 216° |
| 2026-04-29 07:09 | 45.60204 | 5.28022 | 7222 ft | 265 kts | 215° |
| 2026-04-29 07:09 | 45.58724 | 5.26453 | 6856 ft | 262 kts | 215° |
| 2026-04-29 07:09 | 45.57276 | 5.24918 | 6511 ft | 259 kts | 215° |
| 2026-04-29 07:10 | 45.55837 | 5.23394 | 6176 ft | 255 kts | 215° |
| 2026-04-29 07:10 | 45.54472 | 5.21818 | 5818 ft | 253 kts | 225° |
| 2026-04-29 07:10 | 45.53568 | 5.19703 | 5477 ft | 252 kts | 251° |
| 2026-04-29 07:10 | 45.53290 | 5.17215 | 5125 ft | 252 kts | 265° |
| 2026-04-29 07:11 | 45.53442 | 5.14732 | 4713 ft | 253 kts | 282° |
| 2026-04-29 07:11 | 45.54201 | 5.12502 | 4319 ft | 252 kts | 311° |
| 2026-04-29 07:11 | 45.55632 | 5.11083 | 3964 ft | 247 kts | 341° |
| 2026-04-29 07:11 | 45.57318 | 5.10679 | 3614 ft | 241 kts | 358° |
| 2026-04-29 07:12 | 45.58957 | 5.10521 | 3230 ft | 229 kts | 356° |
| 2026-04-29 07:12 | 45.60443 | 5.10334 | 2917 ft | 202 kts | 356° |
| 2026-04-29 07:12 | 45.61762 | 5.10175 | 2690 ft | 178 kts | 356° |
| 2026-04-29 07:12 | 45.62917 | 5.10033 | 2462 ft | 156 kts | 356° |
| 2026-04-29 07:13 | 45.63935 | 5.09908 | 2277 ft | 135 kts | 357° |
| 2026-04-29 07:13 | 45.64850 | 5.09798 | 2103 ft | 140 kts | 357° |
| 2026-04-29 07:13 | 45.65843 | 5.09682 | 1892 ft | 143 kts | 356° |
| 2026-04-29 07:13 | 45.66789 | 5.09564 | 1730 ft | 136 kts | 356° |
| 2026-04-29 07:14 | 45.67770 | 5.09445 | 1516 ft | 138 kts | 356° |
| 2026-04-29 07:14 | 45.68686 | 5.09330 | 1361 ft | 132 kts | 356° |
| 2026-04-29 07:14 | 45.69611 | 5.09204 | 1186 ft | 133 kts | 357° |
| 2026-04-29 07:14 | 45.70544 | 5.09092 | 985 ft | 134 kts | 357° |
| 2026-04-29 07:15 | 45.71472 | 5.08980 | 835 ft | 128 kts | 356° |
| 2026-04-29 07:15 | 45.72245 | 5.08890 | 828 ft | 94 kts | 354° |
| 2026-04-29 07:15 | 45.72742 | 5.08828 | 828 ft | 50 kts | 353° |
| 2026-04-29 07:15 | 45.72929 | 5.08783 | 828 ft | 13 kts | 321° |
| 2026-04-29 07:16 | 45.72963 | 5.08671 | 828 ft | 13 kts | 265° |
| 2026-04-29 07:16 | 45.72955 | 5.08574 | 828 ft | 6 kts | 263° |
| 2026-04-29 07:16 | 45.72949 | 5.08511 | 828 ft | 9 kts | 265° |
| 2026-04-29 07:16 | 45.72942 | 5.08398 | 828 ft | 13 kts | 252° |
| 2026-04-29 07:17 | 45.72854 | 5.08346 | 828 ft | 15 kts | 175° |
| 2026-04-29 07:17 | 45.72737 | 5.08363 | 828 ft | 15 kts | 176° |
| 2026-04-29 07:17 | 45.72674 | 5.08363 | 828 ft | 5 kts | 219° |
| 2026-04-29 07:17 | 45.72676 | 5.08296 | 828 ft | 8 kts | 284° |
| 2026-04-29 07:18 | 45.72693 | 5.08214 | 828 ft | 8 kts | 308° |
| 2026-04-29 07:18 | 45.72717 | 5.08194 | 828 ft | 3 kts | 319° |
| 2026-04-29 07:18 | 45.72715 | 5.08177 | 828 ft | 0 kts | 189° |